This demonstration page uses our WeatherBlox Daily Observations layout. Learn more.

38.80484, -77.04692

Hourly Observations for November 28, 2019

Temp ( °F °C ) Dew Point ( °F °C ) Humidity (%) Winds ( mph kmh ) Pressure ( in mb ) Visibility ( mi km ) Precip ( " mm )
12:52 am 00:52 Partly Cloudy 53 11.7 29 -1.7 40 40 NW 21 33 29.84 1011 10 16.0934 0 0
1:52 am 01:52 Partly Cloudy 52 11.1 27 -2.8 38 38 WNW 25 41 29.87 1012 10 16.0934 0 0
2:52 am 02:52 Mostly Cloudy 51 10.6 28 -2.2 41 41 NW 20 31 29.9 1013 10 16.0934 0 0
3:52 am 03:52 Partly Cloudy 50 10 28 -2.2 43 43 WNW 17 28 29.9 1013 10 16.0934 0 0
4:52 am 04:52 Mostly Clear 48 8.9 29 -1.7 48 48 WNW 13 20 29.94 1014 10 16.0934 0 0
5:52 am 05:52 Mostly Clear 47 8.3 28 -2.2 48 48 NNW 18 30 29.97 1015 10 16.0934 0 0
7:52 am 07:52 Mostly Sunny 46 7.8 29 -1.7 51 51 WNW 14 22 30.03 1017 10 16.0934 0 0
8:52 am 08:52 Mostly Cloudy 47 8.3 30 -1.1 52 52 NW 22 35 30.05 1018 10 16.0934 0 0
9:52 am 09:52 Mostly Cloudy 49 9.4 30 -1.1 48 48 NW 20 31 30.08 1019 10 16.0934 0 0
10:52 am 10:52 Mostly Cloudy 50 10 30 -1.1 46 46 NW 20 31 30.09 1019 10 16.0934 0 0
12:52 pm 12:52 Mostly Cloudy 49 9.4 30 -1.1 48 48 WNW 24 39 30.11 1020 10 16.0934 0 0
1:52 pm 13:52 Cloudy 48 8.9 30 -1.1 50 50 NW 21 33 30.12 1020 10 16.0934 0 0
2:52 pm 14:52 Cloudy 48 8.9 30 -1.1 50 50 NW 18 30 30.14 1021 10 16.0934 0 0
3:52 pm 15:52 Mostly Cloudy 48 8.9 30 -1.1 50 50 WNW 16 26 30.16 1021 10 16.0934 0 0
4:52 pm 16:52 Mostly Cloudy 47 8.3 30 -1.1 52 52 NW 15 24 30.17 1022 10 16.0934 0 0
5:52 pm 17:52 Mostly Cloudy 46 7.8 30 -1.1 54 54 NNW 16 26 30.2 1023 10 16.0934 0 0
6:52 pm 18:52 Mostly Cloudy 46 7.8 30 -1.1 54 54 NW 16 26 30.24 1024 10 16.0934 0 0
7:52 pm 19:52 Cloudy 45 7.2 30 -1.1 56 56 NNW 14 22 30.24 1024 10 16.0934 0 0
8:52 pm 20:52 Cloudy 44 6.7 31 -0.6 60 60 NNW 17 28 30.24 1024 10 16.0934 0 0
9:52 pm 21:52 Cloudy 44 6.7 31 -0.6 60 60 NNW 17 28 30.26 1025 10 16.0934 0 0
10:52 pm 22:52 Cloudy 44 6.7 31 -0.6 60 60 NNW 16 26 30.27 1025 10 16.0934 0 0
11:52 pm 23:52 Cloudy 43 6.1 30 -1.1 60 60 N 17 28 30.27 1025 10 16.0934 0 0

Powered by AerisWeather